sensor_id;sensor_type;location;lat;lon;timestamp;pressure;altitude;pressure_sealevel;temperature;humidity
6851;BME280;3464;42.728;23.296;2023-11-18T00:00:50;94533.20;;;17.01;46.43
6851;BME280;3464;42.728;23.296;2023-11-18T00:03:17;94532.16;;;17.53;45.61
6851;BME280;3464;42.728;23.296;2023-11-18T00:05:44;94520.17;;;17.84;44.92
6851;BME280;3464;42.728;23.296;2023-11-18T00:08:28;94524.00;;;17.84;44.83
6851;BME280;3464;42.728;23.296;2023-11-18T00:17:01;94530.02;;;16.95;46.22
6851;BME280;3464;42.728;23.296;2023-11-18T00:19:28;94542.66;;;17.26;45.86
6851;BME280;3464;42.728;23.296;2023-11-18T00:22:03;94557.97;;;17.69;45.01
6851;BME280;3464;42.728;23.296;2023-11-18T00:24:45;94565.72;;;17.36;45.64
6851;BME280;3464;42.728;23.296;2023-11-18T00:27:24;94559.77;;;17.07;45.88
6851;BME280;3464;42.728;23.296;2023-11-18T00:30:23;94537.15;;;17.12;46.02
6851;BME280;3464;42.728;23.296;2023-11-18T00:32:56;94526.87;;;16.86;46.27
6851;BME280;3464;42.728;23.296;2023-11-18T00:35:23;94521.89;;;16.97;46.27
6851;BME280;3464;42.728;23.296;2023-11-18T00:37:50;94530.94;;;16.44;47.13
6851;BME280;3464;42.728;23.296;2023-11-18T00:40:18;94526.68;;;17.23;45.99
6851;BME280;3464;42.728;23.296;2023-11-18T00:42:44;94528.89;;;16.73;46.56
6851;BME280;3464;42.728;23.296;2023-11-18T00:45:12;94533.35;;;16.81;46.61
6851;BME280;3464;42.728;23.296;2023-11-18T00:47:39;94531.91;;;16.39;47.21
6851;BME280;3464;42.728;23.296;2023-11-18T00:50:06;94531.97;;;16.69;46.33
6851;BME280;3464;42.728;23.296;2023-11-18T00:52:33;94534.77;;;17.21;45.73
6851;BME280;3464;42.728;23.296;2023-11-18T00:54:59;94538.52;;;16.29;46.94
6851;BME280;3464;42.728;23.296;2023-11-18T00:57:26;94544.13;;;16.89;46.22
6851;BME280;3464;42.728;23.296;2023-11-18T00:59:54;94541.88;;;16.95;46.02
6851;BME280;3464;42.728;23.296;2023-11-18T01:02:25;94549.45;;;16.48;46.34
6851;BME280;3464;42.728;23.296;2023-11-18T01:04:52;94561.73;;;15.96;46.82
6851;BME280;3464;42.728;23.296;2023-11-18T01:07:19;94556.61;;;16.50;46.36
6851;BME280;3464;42.728;23.296;2023-11-18T01:09:45;94555.64;;;16.38;46.29
6851;BME280;3464;42.728;23.296;2023-11-18T01:12:12;94563.81;;;16.67;46.14
6851;BME280;3464;42.728;23.296;2023-11-18T01:14:39;94562.42;;;16.55;46.18
6851;BME280;3464;42.728;23.296;2023-11-18T01:17:07;94569.28;;;17.30;45.14
6851;BME280;3464;42.728;23.296;2023-11-18T01:19:35;94574.19;;;17.07;45.36
6851;BME280;3464;42.728;23.296;2023-11-18T01:22:01;94571.78;;;17.16;45.21
6851;BME280;3464;42.728;23.296;2023-11-18T01:24:32;94567.23;;;17.13;45.30
6851;BME280;3464;42.728;23.296;2023-11-18T01:26:58;94578.81;;;16.43;45.93
6851;BME280;3464;42.728;23.296;2023-11-18T01:29:26;94570.91;;;16.70;45.64
6851;BME280;3464;42.728;23.296;2023-11-18T01:31:53;94578.62;;;16.15;46.10
6851;BME280;3464;42.728;23.296;2023-11-18T01:34:19;94568.78;;;16.71;45.37
6851;BME280;3464;42.728;23.296;2023-11-18T01:36:47;94567.54;;;16.86;45.38
6851;BME280;3464;42.728;23.296;2023-11-18T01:39:13;94572.40;;;16.78;45.69
6851;BME280;3464;42.728;23.296;2023-11-18T01:41:40;94581.87;;;16.56;45.70
6851;BME280;3464;42.728;23.296;2023-11-18T01:44:07;94570.05;;;16.87;45.21
6851;BME280;3464;42.728;23.296;2023-11-18T01:46:33;94564.09;;;16.73;45.26
6851;BME280;3464;42.728;23.296;2023-11-18T01:49:00;94579.01;;;16.17;45.99
6851;BME280;3464;42.728;23.296;2023-11-18T01:51:26;94568.34;;;15.85;46.99
6851;BME280;3464;42.728;23.296;2023-11-18T01:53:54;94560.81;;;16.17;46.14
6851;BME280;3464;42.728;23.296;2023-11-18T01:56:20;94561.65;;;15.44;46.80
6851;BME280;3464;42.728;23.296;2023-11-18T01:58:48;94566.84;;;15.37;46.84
6851;BME280;3464;42.728;23.296;2023-11-18T02:01:14;94569.78;;;15.17;46.75
6851;BME280;3464;42.728;23.296;2023-11-18T02:03:41;94590.41;;;15.62;45.94
6851;BME280;3464;42.728;23.296;2023-11-18T02:06:08;94574.32;;;15.00;47.18
6851;BME280;3464;42.728;23.296;2023-11-18T02:08:35;94582.27;;;15.67;45.82
6851;BME280;3464;42.728;23.296;2023-11-18T02:11:10;94573.58;;;15.39;45.69
6851;BME280;3464;42.728;23.296;2023-11-18T02:13:34;94588.98;;;16.06;44.93
6851;BME280;3464;42.728;23.296;2023-11-18T02:16:01;94585.05;;;15.35;45.37
6851;BME280;3464;42.728;23.296;2023-11-18T02:18:29;94585.46;;;16.12;44.53
6851;BME280;3464;42.728;23.296;2023-11-18T02:20:55;94576.11;;;15.39;45.63
6851;BME280;3464;42.728;23.296;2023-11-18T02:23:24;94573.91;;;15.62;45.12
6851;BME280;3464;42.728;23.296;2023-11-18T02:25:51;94582.06;;;15.36;45.67
6851;BME280;3464;42.728;23.296;2023-11-18T02:28:17;94574.92;;;15.55;45.45
6851;BME280;3464;42.728;23.296;2023-11-18T02:30:44;94581.98;;;15.60;45.02
6851;BME280;3464;42.728;23.296;2023-11-18T02:33:18;94570.14;;;15.79;44.40
6851;BME280;3464;42.728;23.296;2023-11-18T02:35:46;94567.50;;;15.84;44.49
6851;BME280;3464;42.728;23.296;2023-11-18T02:38:11;94578.04;;;15.47;44.52
6851;BME280;3464;42.728;23.296;2023-11-18T02:40:40;94596.33;;;15.20;45.00
6851;BME280;3464;42.728;23.296;2023-11-18T02:43:07;94612.44;;;14.73;45.88
6851;BME280;3464;42.728;23.296;2023-11-18T02:45:35;94614.05;;;14.27;46.73
6851;BME280;3464;42.728;23.296;2023-11-18T02:48:03;94607.30;;;15.22;45.08
6851;BME280;3464;42.728;23.296;2023-11-18T02:50:29;94616.02;;;15.50;44.65
6851;BME280;3464;42.728;23.296;2023-11-18T02:52:57;94609.20;;;15.32;44.52
6851;BME280;3464;42.728;23.296;2023-11-18T02:55:24;94606.48;;;14.51;45.39
6851;BME280;3464;42.728;23.296;2023-11-18T02:57:52;94605.39;;;14.66;45.77
6851;BME280;3464;42.728;23.296;2023-11-18T03:00:21;94609.29;;;15.27;44.79
6851;BME280;3464;42.728;23.296;2023-11-18T03:02:49;94606.34;;;14.34;45.79
6851;BME280;3464;42.728;23.296;2023-11-18T03:05:17;94608.97;;;14.53;45.75
6851;BME280;3464;42.728;23.296;2023-11-18T03:07:55;94612.22;;;14.08;46.53
6851;BME280;3464;42.728;23.296;2023-11-18T03:10:35;94606.70;;;14.10;46.15
6851;BME280;3464;42.728;23.296;2023-11-18T03:13:09;94600.09;;;14.01;46.58
6851;BME280;3464;42.728;23.296;2023-11-18T03:15:39;94599.52;;;14.11;45.99
6851;BME280;3464;42.728;23.296;2023-11-18T03:18:08;94602.02;;;14.41;45.61
6851;BME280;3464;42.728;23.296;2023-11-18T03:20:35;94606.05;;;14.76;45.32
6851;BME280;3464;42.728;23.296;2023-11-18T03:23:02;94620.41;;;14.50;45.33
6851;BME280;3464;42.728;23.296;2023-11-18T03:25:30;94621.75;;;14.71;45.02
6851;BME280;3464;42.728;23.296;2023-11-18T03:27:56;94621.16;;;14.02;46.01
6851;BME280;3464;42.728;23.296;2023-11-18T03:30:24;94632.12;;;14.32;45.75
6851;BME280;3464;42.728;23.296;2023-11-18T03:32:52;94617.23;;;14.64;44.97
6851;BME280;3464;42.728;23.296;2023-11-18T03:35:18;94627.27;;;14.45;45.05
6851;BME280;3464;42.728;23.296;2023-11-18T03:37:46;94629.92;;;14.38;45.25
6851;BME280;3464;42.728;23.296;2023-11-18T03:40:15;94617.34;;;14.58;44.52
6851;BME280;3464;42.728;23.296;2023-11-18T03:42:41;94623.59;;;14.38;44.71
6851;BME280;3464;42.728;23.296;2023-11-18T03:45:09;94619.09;;;14.28;44.65
6851;BME280;3464;42.728;23.296;2023-11-18T03:47:37;94634.77;;;14.24;44.77
6851;BME280;3464;42.728;23.296;2023-11-18T03:50:04;94623.95;;;14.12;45.02
6851;BME280;3464;42.728;23.296;2023-11-18T03:52:32;94628.02;;;14.25;44.46
6851;BME280;3464;42.728;23.296;2023-11-18T03:55:02;94630.05;;;14.02;44.67
6851;BME280;3464;42.728;23.296;2023-11-18T03:57:29;94625.84;;;14.00;44.64
6851;BME280;3464;42.728;23.296;2023-11-18T03:59:57;94625.80;;;13.73;44.95
6851;BME280;3464;42.728;23.296;2023-11-18T04:02:27;94625.82;;;13.72;44.87
6851;BME280;3464;42.728;23.296;2023-11-18T04:04:54;94637.28;;;13.34;45.35
6851;BME280;3464;42.728;23.296;2023-11-18T04:07:24;94637.60;;;13.73;44.98
6851;BME280;3464;42.728;23.296;2023-11-18T04:09:50;94638.99;;;13.30;45.36
6851;BME280;3464;42.728;23.296;2023-11-18T04:12:17;94628.21;;;13.82;44.58
6851;BME280;3464;42.728;23.296;2023-11-18T04:14:44;94623.60;;;14.08;44.25
6851;BME280;3464;42.728;23.296;2023-11-18T04:17:10;94641.97;;;13.61;45.18
6851;BME280;3464;42.728;23.296;2023-11-18T04:19:37;94614.11;;;13.34;45.05
6851;BME280;3464;42.728;23.296;2023-11-18T04:22:05;94645.88;;;13.19;45.74
6851;BME280;3464;42.728;23.296;2023-11-18T04:24:31;94633.73;;;13.79;44.55
6851;BME280;3464;42.728;23.296;2023-11-18T04:26:58;94642.16;;;14.38;43.71
6851;BME280;3464;42.728;23.296;2023-11-18T04:29:26;94647.00;;;13.96;44.14
6851;BME280;3464;42.728;23.296;2023-11-18T04:31:53;94638.98;;;13.96;44.22
6851;BME280;3464;42.728;23.296;2023-11-18T04:34:21;94643.45;;;14.07;44.16
6851;BME280;3464;42.728;23.296;2023-11-18T04:36:47;94636.72;;;14.06;43.96
6851;BME280;3464;42.728;23.296;2023-11-18T04:39:14;94642.18;;;14.07;44.07
6851;BME280;3464;42.728;23.296;2023-11-18T04:41:40;94646.80;;;13.79;44.27
6851;BME280;3464;42.728;23.296;2023-11-18T04:44:08;94651.70;;;13.61;44.74
6851;BME280;3464;42.728;23.296;2023-11-18T04:46:35;94652.09;;;13.28;45.06
6851;BME280;3464;42.728;23.296;2023-11-18T04:49:01;94661.15;;;13.45;44.73
6851;BME280;3464;42.728;23.296;2023-11-18T04:51:28;94664.56;;;13.74;44.33
6851;BME280;3464;42.728;23.296;2023-11-18T04:53:55;94680.80;;;13.59;44.33
6851;BME280;3464;42.728;23.296;2023-11-18T04:56:22;94678.67;;;13.60;44.14
6851;BME280;3464;42.728;23.296;2023-11-18T04:58:49;94688.21;;;13.72;44.04
6851;BME280;3464;42.728;23.296;2023-11-18T05:01:15;94680.77;;;13.92;43.72
6851;BME280;3464;42.728;23.296;2023-11-18T05:03:44;94676.15;;;13.90;43.91
6851;BME280;3464;42.728;23.296;2023-11-18T05:06:12;94681.61;;;14.22;43.24
6851;BME280;3464;42.728;23.296;2023-11-18T05:08:39;94658.34;;;13.98;43.37
6851;BME280;3464;42.728;23.296;2023-11-18T05:11:06;94660.34;;;14.34;42.83
6851;BME280;3464;42.728;23.296;2023-11-18T05:13:33;94655.55;;;14.45;42.65
6851;BME280;3464;42.728;23.296;2023-11-18T05:16:01;94661.38;;;13.62;43.99
6851;BME280;3464;42.728;23.296;2023-11-18T05:18:28;94652.06;;;13.96;43.32
6851;BME280;3464;42.728;23.296;2023-11-18T05:20:56;94665.92;;;13.34;44.05
6851;BME280;3464;42.728;23.296;2023-11-18T05:23:24;94660.83;;;13.36;44.29
6851;BME280;3464;42.728;23.296;2023-11-18T05:25:51;94653.06;;;13.51;43.75
6851;BME280;3464;42.728;23.296;2023-11-18T05:28:18;94649.02;;;13.38;43.96
6851;BME280;3464;42.728;23.296;2023-11-18T05:30:47;94653.75;;;13.29;43.92
6851;BME280;3464;42.728;23.296;2023-11-18T05:33:13;94659.13;;;13.38;44.09
6851;BME280;3464;42.728;23.296;2023-11-18T05:35:40;94642.17;;;13.77;43.27
6851;BME280;3464;42.728;23.296;2023-11-18T05:38:06;94654.53;;;13.35;43.99
6851;BME280;3464;42.728;23.296;2023-11-18T05:40:33;94651.03;;;13.45;43.92
6851;BME280;3464;42.728;23.296;2023-11-18T05:43:00;94661.81;;;13.25;44.16
6851;BME280;3464;42.728;23.296;2023-11-18T05:45:26;94646.23;;;13.59;43.59
6851;BME280;3464;42.728;23.296;2023-11-18T05:47:54;94662.50;;;13.38;44.23
6851;BME280;3464;42.728;23.296;2023-11-18T05:50:22;94664.59;;;13.74;43.69
6851;BME280;3464;42.728;23.296;2023-11-18T05:52:48;94678.83;;;13.08;44.26
6851;BME280;3464;42.728;23.296;2023-11-18T05:55:15;94684.04;;;13.69;43.40
6851;BME280;3464;42.728;23.296;2023-11-18T05:57:42;94678.48;;;13.75;43.80
6851;BME280;3464;42.728;23.296;2023-11-18T06:00:09;94672.52;;;13.45;43.64
6851;BME280;3464;42.728;23.296;2023-11-18T06:02:36;94674.80;;;12.87;44.94
6851;BME280;3464;42.728;23.296;2023-11-18T06:05:05;94676.75;;;13.43;44.07
6851;BME280;3464;42.728;23.296;2023-11-18T06:07:32;94682.06;;;13.59;44.39
6851;BME280;3464;42.728;23.296;2023-11-18T06:09:59;94682.70;;;13.72;44.50
6851;BME280;3464;42.728;23.296;2023-11-18T06:12:25;94686.74;;;13.17;45.70
6851;BME280;3464;42.728;23.296;2023-11-18T06:14:52;94680.13;;;13.78;44.91
6851;BME280;3464;42.728;23.296;2023-11-18T06:17:19;94684.72;;;14.11;44.03
6851;BME280;3464;42.728;23.296;2023-11-18T06:19:47;94683.75;;;14.20;43.81
6851;BME280;3464;42.728;23.296;2023-11-18T06:22:13;94684.81;;;14.03;43.37
6851;BME280;3464;42.728;23.296;2023-11-18T06:24:40;94686.50;;;14.04;43.59
6851;BME280;3464;42.728;23.296;2023-11-18T06:27:06;94686.56;;;13.99;43.60
6851;BME280;3464;42.728;23.296;2023-11-18T06:29:34;94686.96;;;14.59;42.79
6851;BME280;3464;42.728;23.296;2023-11-18T06:32:00;94681.82;;;14.64;42.08
6851;BME280;3464;42.728;23.296;2023-11-18T06:34:26;94679.46;;;13.95;42.90
6851;BME280;3464;42.728;23.296;2023-11-18T06:36:53;94681.46;;;13.38;43.50
6851;BME280;3464;42.728;23.296;2023-11-18T06:39:20;94680.78;;;14.22;42.42
6851;BME280;3464;42.728;23.296;2023-11-18T06:41:46;94680.95;;;14.65;41.97
6851;BME280;3464;42.728;23.296;2023-11-18T06:44:14;94693.19;;;14.11;41.93
6851;BME280;3464;42.728;23.296;2023-11-18T06:46:42;94690.89;;;14.77;41.52
6851;BME280;3464;42.728;23.296;2023-11-18T06:49:09;94688.61;;;14.87;41.38
6851;BME280;3464;42.728;23.296;2023-11-18T06:51:35;94696.95;;;14.94;40.53
6851;BME280;3464;42.728;23.296;2023-11-18T06:54:04;94703.05;;;14.57;41.39
6851;BME280;3464;42.728;23.296;2023-11-18T06:56:35;94699.72;;;14.54;41.96
6851;BME280;3464;42.728;23.296;2023-11-18T06:59:02;94698.62;;;14.95;40.87
6851;BME280;3464;42.728;23.296;2023-11-18T07:01:29;94698.75;;;15.11;40.78
6851;BME280;3464;42.728;23.296;2023-11-18T07:03:55;94694.81;;;15.63;39.99
6851;BME280;3464;42.728;23.296;2023-11-18T07:06:22;94694.69;;;14.77;40.62
6851;BME280;3464;42.728;23.296;2023-11-18T07:08:49;94701.91;;;14.50;41.86
6851;BME280;3464;42.728;23.296;2023-11-18T07:11:16;94703.28;;;14.69;41.44
6851;BME280;3464;42.728;23.296;2023-11-18T07:13:43;94710.25;;;13.61;42.70
6851;BME280;3464;42.728;23.296;2023-11-18T07:16:10;94712.42;;;13.91;42.62
6851;BME280;3464;42.728;23.296;2023-11-18T07:18:37;94709.70;;;13.71;43.39
6851;BME280;3464;42.728;23.296;2023-11-18T07:21:04;94708.96;;;13.97;42.68
6851;BME280;3464;42.728;23.296;2023-11-18T07:23:31;94712.30;;;13.65;43.14
6851;BME280;3464;42.728;23.296;2023-11-18T07:25:59;94703.94;;;13.93;42.26
6851;BME280;3464;42.728;23.296;2023-11-18T07:28:26;94710.49;;;13.41;43.29
6851;BME280;3464;42.728;23.296;2023-11-18T07:30:53;94699.72;;;13.61;43.05
6851;BME280;3464;42.728;23.296;2023-11-18T07:33:19;94729.40;;;13.06;44.09
6851;BME280;3464;42.728;23.296;2023-11-18T07:35:47;94724.60;;;13.60;43.14
6851;BME280;3464;42.728;23.296;2023-11-18T07:38:13;94713.16;;;13.66;43.18
6851;BME280;3464;42.728;23.296;2023-11-18T07:40:39;94723.47;;;13.11;43.68
6851;BME280;3464;42.728;23.296;2023-11-18T07:43:08;94720.51;;;13.85;42.88
6851;BME280;3464;42.728;23.296;2023-11-18T07:45:35;94724.73;;;14.15;42.27
6851;BME280;3464;42.728;23.296;2023-11-18T07:48:02;94727.72;;;14.46;42.04
6851;BME280;3464;42.728;23.296;2023-11-18T07:50:29;94738.05;;;13.27;43.33
6851;BME280;3464;42.728;23.296;2023-11-18T07:52:56;94718.55;;;13.73;43.03
6851;BME280;3464;42.728;23.296;2023-11-18T07:55:23;94706.49;;;14.24;42.12
6851;BME280;3464;42.728;23.296;2023-11-18T07:57:49;94703.61;;;13.86;42.28
6851;BME280;3464;42.728;23.296;2023-11-18T08:00:16;94731.77;;;13.22;43.49
6851;BME280;3464;42.728;23.296;2023-11-18T08:02:42;94731.98;;;13.41;43.65
6851;BME280;3464;42.728;23.296;2023-11-18T08:05:09;94719.22;;;13.86;42.64
6851;BME280;3464;42.728;23.296;2023-11-18T08:07:44;94716.27;;;14.74;42.07
6851;BME280;3464;42.728;23.296;2023-11-18T08:10:10;94717.23;;;15.42;39.99
6851;BME280;3464;42.728;23.296;2023-11-18T08:12:38;94738.28;;;14.43;41.56
6851;BME280;3464;42.728;23.296;2023-11-18T08:15:05;94735.27;;;13.85;42.42
6851;BME280;3464;42.728;23.296;2023-11-18T08:17:32;94738.92;;;14.30;42.01
6851;BME280;3464;42.728;23.296;2023-11-18T08:19:59;94751.38;;;13.78;42.59
6851;BME280;3464;42.728;23.296;2023-11-18T08:22:25;94757.45;;;13.96;42.29
6851;BME280;3464;42.728;23.296;2023-11-18T08:24:52;94741.48;;;13.92;42.26
6851;BME280;3464;42.728;23.296;2023-11-18T08:27:18;94763.75;;;14.00;42.56
6851;BME280;3464;42.728;23.296;2023-11-18T08:29:45;94755.23;;;13.72;42.38
6851;BME280;3464;42.728;23.296;2023-11-18T08:32:12;94758.21;;;14.04;42.44
6851;BME280;3464;42.728;23.296;2023-11-18T08:34:38;94759.90;;;14.38;41.74
6851;BME280;3464;42.728;23.296;2023-11-18T08:37:07;94768.98;;;14.51;41.85
6851;BME280;3464;42.728;23.296;2023-11-18T08:39:33;94770.31;;;14.46;41.87
6851;BME280;3464;42.728;23.296;2023-11-18T08:41:59;94761.14;;;14.39;41.75
6851;BME280;3464;42.728;23.296;2023-11-18T08:44:26;94751.37;;;14.43;41.36
6851;BME280;3464;42.728;23.296;2023-11-18T08:46:53;94764.11;;;14.67;41.16
6851;BME280;3464;42.728;23.296;2023-11-18T08:49:19;94759.09;;;14.90;40.86
6851;BME280;3464;42.728;23.296;2023-11-18T08:51:49;94769.02;;;14.77;41.05
6851;BME280;3464;42.728;23.296;2023-11-18T08:54:15;94766.08;;;14.75;41.19
6851;BME280;3464;42.728;23.296;2023-11-18T08:56:51;94771.62;;;14.73;41.52
6851;BME280;3464;42.728;23.296;2023-11-18T08:59:18;94780.30;;;14.26;41.85
6851;BME280;3464;42.728;23.296;2023-11-18T09:01:44;94770.81;;;13.73;42.88
6851;BME280;3464;42.728;23.296;2023-11-18T09:04:11;94762.16;;;14.57;41.83
6851;BME280;3464;42.728;23.296;2023-11-18T09:06:38;94759.84;;;13.34;43.12
6851;BME280;3464;42.728;23.296;2023-11-18T09:09:05;94778.38;;;13.36;43.33
6851;BME280;3464;42.728;23.296;2023-11-18T09:11:32;94752.94;;;13.88;42.99
6851;BME280;3464;42.728;23.296;2023-11-18T09:13:58;94767.13;;;13.65;42.75
6851;BME280;3464;42.728;23.296;2023-11-18T09:16:25;94764.60;;;14.34;41.96
6851;BME280;3464;42.728;23.296;2023-11-18T09:18:52;94746.94;;;13.59;42.40
6851;BME280;3464;42.728;23.296;2023-11-18T09:21:18;94758.86;;;14.51;41.34
6851;BME280;3464;42.728;23.296;2023-11-18T09:23:46;94747.64;;;14.94;40.73
6851;BME280;3464;42.728;23.296;2023-11-18T09:26:13;94741.03;;;13.62;42.41
6851;BME280;3464;42.728;23.296;2023-11-18T09:28:40;94755.70;;;14.37;41.59
6851;BME280;3464;42.728;23.296;2023-11-18T09:31:06;94741.05;;;14.57;41.32
6851;BME280;3464;42.728;23.296;2023-11-18T09:33:33;94751.96;;;13.62;42.39
6851;BME280;3464;42.728;23.296;2023-11-18T09:36:02;94742.73;;;14.56;41.33
6851;BME280;3464;42.728;23.296;2023-11-18T09:38:29;94729.33;;;14.49;41.26
6851;BME280;3464;42.728;23.296;2023-11-18T09:40:57;94737.47;;;13.76;41.93
6851;BME280;3464;42.728;23.296;2023-11-18T09:43:24;94723.14;;;13.75;42.41
6851;BME280;3464;42.728;23.296;2023-11-18T09:45:53;94736.97;;;13.49;42.16
6851;BME280;3464;42.728;23.296;2023-11-18T09:48:17;94733.08;;;14.25;41.47
6851;BME280;3464;42.728;23.296;2023-11-18T09:50:44;94746.28;;;13.81;42.06
6851;BME280;3464;42.728;23.296;2023-11-18T09:53:10;94759.63;;;13.55;42.62
6851;BME280;3464;42.728;23.296;2023-11-18T09:55:38;94729.19;;;13.64;42.86
6851;BME280;3464;42.728;23.296;2023-11-18T09:58:04;94723.10;;;14.11;42.04
6851;BME280;3464;42.728;23.296;2023-11-18T10:00:31;94735.52;;;13.27;42.63
6851;BME280;3464;42.728;23.296;2023-11-18T10:02:58;94722.01;;;13.28;43.02
6851;BME280;3464;42.728;23.296;2023-11-18T10:05:28;94707.01;;;14.15;41.97
6851;BME280;3464;42.728;23.296;2023-11-18T10:07:54;94710.97;;;14.04;41.79
6851;BME280;3464;42.728;23.296;2023-11-18T10:10:21;94720.95;;;13.46;42.05
6851;BME280;3464;42.728;23.296;2023-11-18T10:12:49;94729.36;;;14.47;41.79
6851;BME280;3464;42.728;23.296;2023-11-18T10:15:19;94691.86;;;13.84;42.15
6851;BME280;3464;42.728;23.296;2023-11-18T10:17:59;94697.91;;;14.35;41.29
6851;BME280;3464;42.728;23.296;2023-11-18T10:20:44;94705.41;;;14.10;41.93
6851;BME280;3464;42.728;23.296;2023-11-18T10:23:13;94715.42;;;14.47;41.04
6851;BME280;3464;42.728;23.296;2023-11-18T10:25:56;94714.66;;;14.44;40.92
6851;BME280;3464;42.728;23.296;2023-11-18T10:28:25;94711.75;;;14.67;41.03
6851;BME280;3464;42.728;23.296;2023-11-18T10:31:01;94708.91;;;14.59;40.70
6851;BME280;3464;42.728;23.296;2023-11-18T10:33:35;94713.50;;;14.04;41.28
6851;BME280;3464;42.728;23.296;2023-11-18T10:36:10;94720.94;;;13.48;42.60
6851;BME280;3464;42.728;23.296;2023-11-18T10:39:10;94713.98;;;14.00;41.65
6851;BME280;3464;42.728;23.296;2023-11-18T10:41:39;94727.28;;;14.14;42.01
6851;BME280;3464;42.728;23.296;2023-11-18T10:44:07;94710.81;;;13.11;43.26
6851;BME280;3464;42.728;23.296;2023-11-18T10:46:35;94722.25;;;13.06;43.14
6851;BME280;3464;42.728;23.296;2023-11-18T10:49:02;94718.02;;;13.82;41.86
6851;BME280;3464;42.728;23.296;2023-11-18T10:51:28;94711.73;;;14.10;41.66
6851;BME280;3464;42.728;23.296;2023-11-18T10:53:57;94720.58;;;13.79;42.28
6851;BME280;3464;42.728;23.296;2023-11-18T10:56:25;94724.77;;;13.06;43.21
6851;BME280;3464;42.728;23.296;2023-11-18T10:58:56;94697.70;;;13.87;42.01
6851;BME280;3464;42.728;23.296;2023-11-18T11:01:28;94698.09;;;14.20;41.51
6851;BME280;3464;42.728;23.296;2023-11-18T11:03:54;94716.40;;;13.41;42.75
6851;BME280;3464;42.728;23.296;2023-11-18T11:06:24;94714.28;;;13.78;42.41
6851;BME280;3464;42.728;23.296;2023-11-18T11:08:51;94710.77;;;13.17;43.48
6851;BME280;3464;42.728;23.296;2023-11-18T11:11:20;94694.57;;;13.33;42.70
6851;BME280;3464;42.728;23.296;2023-11-18T11:13:49;94694.20;;;14.81;40.74
6851;BME280;3464;42.728;23.296;2023-11-18T11:16:18;94697.75;;;13.83;41.91
6851;BME280;3464;42.728;23.296;2023-11-18T11:18:44;94708.45;;;12.91;42.81
6851;BME280;3464;42.728;23.296;2023-11-18T11:21:14;94709.73;;;13.68;42.18
6851;BME280;3464;42.728;23.296;2023-11-18T11:23:55;94708.20;;;14.77;40.81
6851;BME280;3464;42.728;23.296;2023-11-18T11:26:26;94711.19;;;14.18;41.46
6851;BME280;3464;42.728;23.296;2023-11-18T11:28:57;94728.58;;;13.02;42.66
6851;BME280;3464;42.728;23.296;2023-11-18T11:31:23;94705.58;;;13.96;41.73
6851;BME280;3464;42.728;23.296;2023-11-18T11:33:54;94712.78;;;12.78;43.14
6851;BME280;3464;42.728;23.296;2023-11-18T11:36:17;94700.53;;;13.65;42.57
6851;BME280;3464;42.728;23.296;2023-11-18T11:38:43;94700.69;;;14.16;41.63
6851;BME280;3464;42.728;23.296;2023-11-18T11:41:12;94706.38;;;14.01;41.53
6851;BME280;3464;42.728;23.296;2023-11-18T11:43:38;94696.53;;;14.11;41.34
6851;BME280;3464;42.728;23.296;2023-11-18T11:46:05;94696.23;;;14.62;40.99
6851;BME280;3464;42.728;23.296;2023-11-18T11:48:33;94718.09;;;14.91;40.28
6851;BME280;3464;42.728;23.296;2023-11-18T11:51:26;94705.81;;;14.11;41.31
6851;BME280;3464;42.728;23.296;2023-11-18T11:54:02;94691.31;;;15.70;39.58
6851;BME280;3464;42.728;23.296;2023-11-18T11:56:37;94696.74;;;14.55;40.55
6851;BME280;3464;42.728;23.296;2023-11-18T11:59:03;94676.23;;;14.95;40.06
6851;BME280;3464;42.728;23.296;2023-11-18T12:01:35;94684.48;;;14.81;40.92
6851;BME280;3464;42.728;23.296;2023-11-18T12:04:00;94692.33;;;14.40;40.99
6851;BME280;3464;42.728;23.296;2023-11-18T12:06:26;94714.28;;;15.17;40.60
6851;BME280;3464;42.728;23.296;2023-11-18T12:08:53;94719.63;;;14.18;41.44
6851;BME280;3464;42.728;23.296;2023-11-18T12:11:21;94703.69;;;15.18;40.34
6851;BME280;3464;42.728;23.296;2023-11-18T12:16:56;94727.06;;;14.86;40.64
6851;BME280;3464;42.728;23.296;2023-11-18T12:21:53;94722.78;;;14.65;40.37
6851;BME280;3464;42.728;23.296;2023-11-18T12:24:20;94720.40;;;15.05;40.45
6851;BME280;3464;42.728;23.296;2023-11-18T12:26:46;94730.54;;;14.81;40.74
6851;BME280;3464;42.728;23.296;2023-11-18T12:29:30;94708.88;;;14.87;40.33
6851;BME280;3464;42.728;23.296;2023-11-18T12:31:56;94732.48;;;14.91;40.51
6851;BME280;3464;42.728;23.296;2023-11-18T12:34:23;94725.53;;;15.26;39.80
6851;BME280;3464;42.728;23.296;2023-11-18T12:37:12;94716.91;;;14.88;40.26
6851;BME280;3464;42.728;23.296;2023-11-18T12:42:53;94717.47;;;14.52;41.47
6851;BME280;3464;42.728;23.296;2023-11-18T12:45:37;94712.80;;;15.29;40.17
6851;BME280;3464;42.728;23.296;2023-11-18T12:47:59;94708.35;;;14.69;40.75
6851;BME280;3464;42.728;23.296;2023-11-18T12:50:27;94692.91;;;15.06;40.54
6851;BME280;3464;42.728;23.296;2023-11-18T12:52:54;94707.59;;;15.38;40.05
6851;BME280;3464;42.728;23.296;2023-11-18T12:58:15;94743.29;;;14.48;41.47
6851;BME280;3464;42.728;23.296;2023-11-18T13:00:42;94730.55;;;14.25;41.61
6851;BME280;3464;42.728;23.296;2023-11-18T13:03:09;94723.31;;;14.29;41.91
6851;BME280;3464;42.728;23.296;2023-11-18T13:05:36;94744.55;;;14.76;40.70
6851;BME280;3464;42.728;23.296;2023-11-18T13:08:03;94750.87;;;15.02;40.70
6851;BME280;3464;42.728;23.296;2023-11-18T13:10:30;94733.48;;;13.92;42.03
6851;BME280;3464;42.728;23.296;2023-11-18T13:12:57;94756.86;;;14.44;41.82
6851;BME280;3464;42.728;23.296;2023-11-18T13:15:24;94760.70;;;14.41;41.76
6851;BME280;3464;42.728;23.296;2023-11-18T13:18:00;94754.39;;;14.93;40.90
6851;BME280;3464;42.728;23.296;2023-11-18T13:20:38;94776.01;;;14.31;41.92
6851;BME280;3464;42.728;23.296;2023-11-18T13:23:08;94771.67;;;14.97;41.22
6851;BME280;3464;42.728;23.296;2023-11-18T13:25:32;94771.42;;;14.29;41.68
6851;BME280;3464;42.728;23.296;2023-11-18T13:27:59;94780.52;;;14.70;41.50
6851;BME280;3464;42.728;23.296;2023-11-18T13:30:26;94777.12;;;14.71;41.29
6851;BME280;3464;42.728;23.296;2023-11-18T13:32:53;94770.02;;;14.94;41.35